sensor_id;sensor_type;location;lat;lon;timestamp;P1;durP1;ratioP1;P2;durP2;ratioP2
28625;SDS011;18905;42.668;23.364;2024-01-30T00:01:01;6.32;;;2.83;;
28625;SDS011;18905;42.668;23.364;2024-01-30T00:03:27;9.18;;;3.97;;
28625;SDS011;18905;42.668;23.364;2024-01-30T00:05:52;6.55;;;3.58;;
28625;SDS011;18905;42.668;23.364;2024-01-30T00:08:17;6.17;;;3.23;;
28625;SDS011;18905;42.668;23.364;2024-01-30T00:10:43;5.78;;;3.30;;
28625;SDS011;18905;42.668;23.364;2024-01-30T00:13:08;6.60;;;3.42;;
28625;SDS011;18905;42.668;23.364;2024-01-30T00:15:34;8.53;;;3.63;;
28625;SDS011;18905;42.668;23.364;2024-01-30T00:17:59;5.00;;;2.83;;
28625;SDS011;18905;42.668;23.364;2024-01-30T00:20:25;5.72;;;3.65;;
28625;SDS011;18905;42.668;23.364;2024-01-30T00:22:50;7.93;;;3.22;;
28625;SDS011;18905;42.668;23.364;2024-01-30T00:25:16;5.25;;;3.13;;
28625;SDS011;18905;42.668;23.364;2024-01-30T00:27:41;5.28;;;3.42;;
28625;SDS011;18905;42.668;23.364;2024-01-30T00:30:06;6.03;;;3.47;;
28625;SDS011;18905;42.668;23.364;2024-01-30T00:32:32;6.55;;;4.65;;
28625;SDS011;18905;42.668;23.364;2024-01-30T00:34:57;6.97;;;3.50;;
28625;SDS011;18905;42.668;23.364;2024-01-30T00:37:23;4.72;;;3.00;;
28625;SDS011;18905;42.668;23.364;2024-01-30T00:39:48;12.30;;;3.95;;
28625;SDS011;18905;42.668;23.364;2024-01-30T00:42:14;6.05;;;3.58;;
28625;SDS011;18905;42.668;23.364;2024-01-30T00:44:40;10.05;;;4.15;;
28625;SDS011;18905;42.668;23.364;2024-01-30T00:47:05;6.35;;;3.70;;
28625;SDS011;18905;42.668;23.364;2024-01-30T00:49:31;6.00;;;3.17;;
28625;SDS011;18905;42.668;23.364;2024-01-30T00:51:56;6.30;;;3.70;;
28625;SDS011;18905;42.668;23.364;2024-01-30T00:54:22;6.90;;;3.47;;
28625;SDS011;18905;42.668;23.364;2024-01-30T00:56:47;6.60;;;3.83;;
28625;SDS011;18905;42.668;23.364;2024-01-30T00:59:13;5.45;;;3.13;;
28625;SDS011;18905;42.668;23.364;2024-01-30T01:01:38;5.20;;;3.40;;
28625;SDS011;18905;42.668;23.364;2024-01-30T01:04:03;4.60;;;3.33;;
28625;SDS011;18905;42.668;23.364;2024-01-30T01:06:29;6.72;;;2.92;;
28625;SDS011;18905;42.668;23.364;2024-01-30T01:08:54;9.83;;;4.57;;
28625;SDS011;18905;42.668;23.364;2024-01-30T01:11:19;10.02;;;3.47;;
28625;SDS011;18905;42.668;23.364;2024-01-30T01:13:45;4.55;;;2.90;;
28625;SDS011;18905;42.668;23.364;2024-01-30T01:16:10;6.28;;;2.90;;
28625;SDS011;18905;42.668;23.364;2024-01-30T01:18:35;3.65;;;2.60;;
28625;SDS011;18905;42.668;23.364;2024-01-30T01:21:01;5.43;;;3.33;;
28625;SDS011;18905;42.668;23.364;2024-01-30T01:23:26;5.03;;;2.90;;
28625;SDS011;18905;42.668;23.364;2024-01-30T01:25:52;4.97;;;2.80;;
28625;SDS011;18905;42.668;23.364;2024-01-30T01:28:17;10.18;;;3.40;;
28625;SDS011;18905;42.668;23.364;2024-01-30T01:30:42;4.80;;;3.13;;
28625;SDS011;18905;42.668;23.364;2024-01-30T01:33:08;5.45;;;3.30;;
28625;SDS011;18905;42.668;23.364;2024-01-30T01:35:34;4.85;;;3.15;;
28625;SDS011;18905;42.668;23.364;2024-01-30T01:38:00;4.35;;;2.67;;
28625;SDS011;18905;42.668;23.364;2024-01-30T01:40:26;2.88;;;2.17;;
28625;SDS011;18905;42.668;23.364;2024-01-30T01:42:52;4.72;;;3.22;;
28625;SDS011;18905;42.668;23.364;2024-01-30T01:45:19;4.50;;;2.85;;
28625;SDS011;18905;42.668;23.364;2024-01-30T01:47:47;4.80;;;2.92;;
28625;SDS011;18905;42.668;23.364;2024-01-30T01:50:15;4.00;;;2.95;;
28625;SDS011;18905;42.668;23.364;2024-01-30T01:52:44;5.22;;;2.75;;
28625;SDS011;18905;42.668;23.364;2024-01-30T01:55:12;4.95;;;3.25;;
28625;SDS011;18905;42.668;23.364;2024-01-30T01:57:38;7.00;;;3.17;;
28625;SDS011;18905;42.668;23.364;2024-01-30T02:00:04;4.50;;;2.65;;
28625;SDS011;18905;42.668;23.364;2024-01-30T02:02:30;6.85;;;2.80;;
28625;SDS011;18905;42.668;23.364;2024-01-30T02:04:59;7.35;;;3.40;;
28625;SDS011;18905;42.668;23.364;2024-01-30T02:07:25;5.75;;;2.60;;
28625;SDS011;18905;42.668;23.364;2024-01-30T02:09:50;2.88;;;2.55;;
28625;SDS011;18905;42.668;23.364;2024-01-30T02:12:15;4.50;;;2.47;;
28625;SDS011;18905;42.668;23.364;2024-01-30T02:14:47;6.40;;;3.03;;
28625;SDS011;18905;42.668;23.364;2024-01-30T02:17:14;4.25;;;2.42;;
28625;SDS011;18905;42.668;23.364;2024-01-30T02:19:40;5.32;;;2.85;;
28625;SDS011;18905;42.668;23.364;2024-01-30T02:22:05;3.60;;;2.30;;
28625;SDS011;18905;42.668;23.364;2024-01-30T02:24:32;7.80;;;3.08;;
28625;SDS011;18905;42.668;23.364;2024-01-30T02:26:57;4.53;;;2.75;;
28625;SDS011;18905;42.668;23.364;2024-01-30T02:29:23;4.13;;;2.70;;
28625;SDS011;18905;42.668;23.364;2024-01-30T02:31:48;4.07;;;2.60;;
28625;SDS011;18905;42.668;23.364;2024-01-30T02:34:14;3.78;;;2.72;;
28625;SDS011;18905;42.668;23.364;2024-01-30T02:36:42;2.88;;;2.63;;
28625;SDS011;18905;42.668;23.364;2024-01-30T02:39:08;3.55;;;2.92;;
28625;SDS011;18905;42.668;23.364;2024-01-30T02:41:34;5.00;;;2.38;;
28625;SDS011;18905;42.668;23.364;2024-01-30T02:44:00;5.43;;;3.20;;
28625;SDS011;18905;42.668;23.364;2024-01-30T02:46:26;4.53;;;2.58;;
28625;SDS011;18905;42.668;23.364;2024-01-30T02:48:51;5.22;;;2.70;;
28625;SDS011;18905;42.668;23.364;2024-01-30T02:51:16;5.15;;;3.17;;
28625;SDS011;18905;42.668;23.364;2024-01-30T02:53:42;5.72;;;2.47;;
28625;SDS011;18905;42.668;23.364;2024-01-30T02:56:07;3.70;;;2.53;;
28625;SDS011;18905;42.668;23.364;2024-01-30T02:58:35;4.85;;;3.00;;
28625;SDS011;18905;42.668;23.364;2024-01-30T03:01:01;4.57;;;3.15;;
28625;SDS011;18905;42.668;23.364;2024-01-30T03:03:27;9.40;;;2.72;;
28625;SDS011;18905;42.668;23.364;2024-01-30T03:05:52;5.05;;;2.50;;
28625;SDS011;18905;42.668;23.364;2024-01-30T03:08:17;3.15;;;2.15;;
28625;SDS011;18905;42.668;23.364;2024-01-30T03:10:43;6.15;;;2.78;;
28625;SDS011;18905;42.668;23.364;2024-01-30T03:13:08;6.05;;;2.58;;
28625;SDS011;18905;42.668;23.364;2024-01-30T03:15:33;3.58;;;2.35;;
28625;SDS011;18905;42.668;23.364;2024-01-30T03:17:59;6.38;;;3.00;;
28625;SDS011;18905;42.668;23.364;2024-01-30T03:20:24;2.97;;;2.25;;
28625;SDS011;18905;42.668;23.364;2024-01-30T03:22:49;5.78;;;2.35;;
28625;SDS011;18905;42.668;23.364;2024-01-30T03:25:15;7.68;;;2.67;;
28625;SDS011;18905;42.668;23.364;2024-01-30T03:27:40;7.55;;;2.55;;
28625;SDS011;18905;42.668;23.364;2024-01-30T03:30:06;4.05;;;2.42;;
28625;SDS011;18905;42.668;23.364;2024-01-30T03:32:32;5.75;;;2.83;;
28625;SDS011;18905;42.668;23.364;2024-01-30T03:34:57;4.75;;;2.33;;
28625;SDS011;18905;42.668;23.364;2024-01-30T03:37:23;3.72;;;2.72;;
28625;SDS011;18905;42.668;23.364;2024-01-30T03:39:48;3.75;;;2.25;;
28625;SDS011;18905;42.668;23.364;2024-01-30T03:42:14;5.28;;;2.35;;
28625;SDS011;18905;42.668;23.364;2024-01-30T03:44:39;3.55;;;2.38;;
28625;SDS011;18905;42.668;23.364;2024-01-30T03:47:05;5.15;;;2.55;;
28625;SDS011;18905;42.668;23.364;2024-01-30T03:49:30;3.55;;;2.35;;
28625;SDS011;18905;42.668;23.364;2024-01-30T03:51:55;6.47;;;2.15;;
28625;SDS011;18905;42.668;23.364;2024-01-30T03:54:21;3.73;;;1.80;;
28625;SDS011;18905;42.668;23.364;2024-01-30T03:56:46;3.28;;;2.42;;
28625;SDS011;18905;42.668;23.364;2024-01-30T03:59:12;5.40;;;2.28;;
28625;SDS011;18905;42.668;23.364;2024-01-30T04:01:37;4.43;;;2.45;;
28625;SDS011;18905;42.668;23.364;2024-01-30T04:04:03;1.98;;;1.67;;
28625;SDS011;18905;42.668;23.364;2024-01-30T04:06:28;2.42;;;1.73;;
28625;SDS011;18905;42.668;23.364;2024-01-30T04:08:53;3.15;;;2.50;;
28625;SDS011;18905;42.668;23.364;2024-01-30T04:11:19;3.83;;;2.20;;
28625;SDS011;18905;42.668;23.364;2024-01-30T04:13:47;3.75;;;2.20;;
28625;SDS011;18905;42.668;23.364;2024-01-30T04:16:22;4.22;;;2.90;;
28625;SDS011;18905;42.668;23.364;2024-01-30T04:18:48;3.35;;;2.38;;
28625;SDS011;18905;42.668;23.364;2024-01-30T04:21:13;3.50;;;2.30;;
28625;SDS011;18905;42.668;23.364;2024-01-30T04:23:39;3.17;;;2.08;;
28625;SDS011;18905;42.668;23.364;2024-01-30T04:26:05;9.70;;;2.22;;
28625;SDS011;18905;42.668;23.364;2024-01-30T04:28:31;9.55;;;3.17;;
28625;SDS011;18905;42.668;23.364;2024-01-30T04:30:56;3.27;;;2.40;;
28625;SDS011;18905;42.668;23.364;2024-01-30T04:33:22;5.05;;;2.90;;
28625;SDS011;18905;42.668;23.364;2024-01-30T04:35:47;7.53;;;3.05;;
28625;SDS011;18905;42.668;23.364;2024-01-30T04:38:12;6.85;;;2.75;;
28625;SDS011;18905;42.668;23.364;2024-01-30T04:40:39;5.70;;;2.45;;
28625;SDS011;18905;42.668;23.364;2024-01-30T04:43:05;7.47;;;3.05;;
28625;SDS011;18905;42.668;23.364;2024-01-30T04:45:30;9.52;;;3.30;;
28625;SDS011;18905;42.668;23.364;2024-01-30T04:47:56;4.45;;;2.42;;
28625;SDS011;18905;42.668;23.364;2024-01-30T04:50:21;6.35;;;2.22;;
28625;SDS011;18905;42.668;23.364;2024-01-30T04:52:47;4.55;;;2.78;;
28625;SDS011;18905;42.668;23.364;2024-01-30T04:55:12;4.22;;;3.00;;
28625;SDS011;18905;42.668;23.364;2024-01-30T04:57:37;4.15;;;2.50;;
28625;SDS011;18905;42.668;23.364;2024-01-30T05:00:03;4.18;;;2.75;;
28625;SDS011;18905;42.668;23.364;2024-01-30T05:02:29;4.57;;;2.50;;
28625;SDS011;18905;42.668;23.364;2024-01-30T05:04:55;5.03;;;2.88;;
28625;SDS011;18905;42.668;23.364;2024-01-30T05:07:20;4.10;;;2.53;;
28625;SDS011;18905;42.668;23.364;2024-01-30T05:09:45;6.70;;;3.27;;
28625;SDS011;18905;42.668;23.364;2024-01-30T05:12:11;10.33;;;4.60;;
28625;SDS011;18905;42.668;23.364;2024-01-30T05:14:36;3.55;;;2.38;;
28625;SDS011;18905;42.668;23.364;2024-01-30T05:17:01;4.17;;;3.27;;
28625;SDS011;18905;42.668;23.364;2024-01-30T05:19:28;7.05;;;5.10;;
28625;SDS011;18905;42.668;23.364;2024-01-30T05:21:53;4.10;;;2.58;;
28625;SDS011;18905;42.668;23.364;2024-01-30T05:26:44;2.17;;;1.97;;
28625;SDS011;18905;42.668;23.364;2024-01-30T05:29:09;3.22;;;2.15;;
28625;SDS011;18905;42.668;23.364;2024-01-30T06:00:40;8.77;;;3.10;;
28625;SDS011;18905;42.668;23.364;2024-01-30T06:03:05;3.07;;;2.03;;
28625;SDS011;18905;42.668;23.364;2024-01-30T06:05:31;3.78;;;2.38;;
28625;SDS011;18905;42.668;23.364;2024-01-30T06:07:56;4.53;;;2.93;;
28625;SDS011;18905;42.668;23.364;2024-01-30T06:10:21;4.40;;;2.97;;
28625;SDS011;18905;42.668;23.364;2024-01-30T06:12:47;5.23;;;2.70;;
28625;SDS011;18905;42.668;23.364;2024-01-30T06:15:13;3.42;;;2.38;;
28625;SDS011;18905;42.668;23.364;2024-01-30T06:17:38;2.88;;;2.15;;
28625;SDS011;18905;42.668;23.364;2024-01-30T06:20:04;6.40;;;4.07;;
28625;SDS011;18905;42.668;23.364;2024-01-30T06:22:30;7.25;;;4.35;;
28625;SDS011;18905;42.668;23.364;2024-01-30T06:24:55;8.23;;;4.40;;
28625;SDS011;18905;42.668;23.364;2024-01-30T06:27:21;4.90;;;4.40;;
28625;SDS011;18905;42.668;23.364;2024-01-30T06:29:46;7.85;;;4.78;;
28625;SDS011;18905;42.668;23.364;2024-01-30T06:32:11;7.90;;;5.00;;
28625;SDS011;18905;42.668;23.364;2024-01-30T06:34:37;9.70;;;5.60;;
28625;SDS011;18905;42.668;23.364;2024-01-30T06:37:03;9.40;;;5.88;;
28625;SDS011;18905;42.668;23.364;2024-01-30T06:39:29;8.43;;;5.57;;
28625;SDS011;18905;42.668;23.364;2024-01-30T08:02:07;2.00;;;1.63;;
28625;SDS011;18905;42.668;23.364;2024-01-30T08:04:33;2.45;;;2.25;;
28625;SDS011;18905;42.668;23.364;2024-01-30T10:57:12;2.15;;;1.33;;
28625;SDS011;18905;42.668;23.364;2024-01-30T10:59:40;3.73;;;2.93;;
28625;SDS011;18905;42.668;23.364;2024-01-30T11:02:06;3.20;;;2.50;;
28625;SDS011;18905;42.668;23.364;2024-01-30T11:04:40;2.90;;;2.30;;
28625;SDS011;18905;42.668;23.364;2024-01-30T11:07:15;2.20;;;2.00;;
28625;SDS011;18905;42.668;23.364;2024-01-30T11:09:48;2.70;;;2.50;;
28625;SDS011;18905;42.668;23.364;2024-01-30T11:12:21;2.92;;;2.40;;
28625;SDS011;18905;42.668;23.364;2024-01-30T11:14:47;3.33;;;2.35;;
28625;SDS011;18905;42.668;23.364;2024-01-30T11:17:13;9.63;;;3.08;;
28625;SDS011;18905;42.668;23.364;2024-01-30T11:19:38;2.93;;;2.63;;
28625;SDS011;18905;42.668;23.364;2024-01-30T11:22:06;3.95;;;2.60;;
28625;SDS011;18905;42.668;23.364;2024-01-30T11:24:36;3.83;;;2.50;;
28625;SDS011;18905;42.668;23.364;2024-01-30T11:27:08;3.35;;;2.65;;
28625;SDS011;18905;42.668;23.364;2024-01-30T11:29:37;3.83;;;2.75;;
28625;SDS011;18905;42.668;23.364;2024-01-30T11:32:03;4.27;;;2.60;;
28625;SDS011;18905;42.668;23.364;2024-01-30T11:34:28;2.78;;;2.58;;
28625;SDS011;18905;42.668;23.364;2024-01-30T11:37:03;3.53;;;2.55;;
28625;SDS011;18905;42.668;23.364;2024-01-30T11:39:34;4.23;;;2.77;;
28625;SDS011;18905;42.668;23.364;2024-01-30T11:42:01;3.70;;;2.60;;
28625;SDS011;18905;42.668;23.364;2024-01-30T11:44:29;4.03;;;2.55;;
28625;SDS011;18905;42.668;23.364;2024-01-30T11:46:55;2.80;;;2.40;;
28625;SDS011;18905;42.668;23.364;2024-01-30T11:49:21;2.60;;;2.40;;
28625;SDS011;18905;42.668;23.364;2024-01-30T11:51:46;4.10;;;2.50;;
28625;SDS011;18905;42.668;23.364;2024-01-30T11:54:14;4.55;;;2.83;;
28625;SDS011;18905;42.668;23.364;2024-01-30T11:56:40;2.90;;;2.65;;
28625;SDS011;18905;42.668;23.364;2024-01-30T11:59:06;8.18;;;2.95;;
28625;SDS011;18905;42.668;23.364;2024-01-30T12:01:31;6.40;;;3.00;;
28625;SDS011;18905;42.668;23.364;2024-01-30T12:04:00;5.50;;;3.50;;
28625;SDS011;18905;42.668;23.364;2024-01-30T12:06:26;7.75;;;3.40;;
28625;SDS011;18905;42.668;23.364;2024-01-30T12:08:59;3.35;;;2.92;;
28625;SDS011;18905;42.668;23.364;2024-01-30T12:11:26;5.90;;;3.15;;
28625;SDS011;18905;42.668;23.364;2024-01-30T12:13:52;3.42;;;3.10;;
28625;SDS011;18905;42.668;23.364;2024-01-30T12:16:18;3.67;;;2.80;;
28625;SDS011;18905;42.668;23.364;2024-01-30T12:18:44;4.32;;;2.88;;
28625;SDS011;18905;42.668;23.364;2024-01-30T12:21:09;3.77;;;2.90;;
28625;SDS011;18905;42.668;23.364;2024-01-30T12:23:35;4.27;;;3.07;;
28625;SDS011;18905;42.668;23.364;2024-01-30T12:26:00;3.60;;;2.95;;
28625;SDS011;18905;42.668;23.364;2024-01-30T12:28:27;4.05;;;3.10;;
28625;SDS011;18905;42.668;23.364;2024-01-30T12:30:56;5.18;;;2.90;;
28625;SDS011;18905;42.668;23.364;2024-01-30T12:33:24;3.15;;;2.85;;
28625;SDS011;18905;42.668;23.364;2024-01-30T12:35:52;3.22;;;2.67;;
28625;SDS011;18905;42.668;23.364;2024-01-30T12:38:18;5.35;;;2.80;;
28625;SDS011;18905;42.668;23.364;2024-01-30T12:40:43;3.70;;;2.80;;
28625;SDS011;18905;42.668;23.364;2024-01-30T12:43:09;3.10;;;2.80;;
28625;SDS011;18905;42.668;23.364;2024-01-30T12:45:35;4.30;;;3.10;;
28625;SDS011;18905;42.668;23.364;2024-01-30T12:48:01;4.05;;;3.60;;
28625;SDS011;18905;42.668;23.364;2024-01-30T12:50:27;4.27;;;3.23;;
28625;SDS011;18905;42.668;23.364;2024-01-30T12:52:52;6.33;;;3.93;;
28625;SDS011;18905;42.668;23.364;2024-01-30T12:55:18;3.93;;;3.40;;
28625;SDS011;18905;42.668;23.364;2024-01-30T12:57:43;5.10;;;3.07;;
28625;SDS011;18905;42.668;23.364;2024-01-30T13:00:09;4.00;;;3.33;;
28625;SDS011;18905;42.668;23.364;2024-01-30T13:02:34;6.03;;;3.30;;
28625;SDS011;18905;42.668;23.364;2024-01-30T13:05:04;3.88;;;3.30;;
28625;SDS011;18905;42.668;23.364;2024-01-30T13:07:30;4.13;;;3.30;;
28625;SDS011;18905;42.668;23.364;2024-01-30T13:09:56;4.97;;;3.00;;
28625;SDS011;18905;42.668;23.364;2024-01-30T13:12:28;5.07;;;3.70;;
28625;SDS011;18905;42.668;23.364;2024-01-30T13:14:54;4.90;;;3.33;;
28625;SDS011;18905;42.668;23.364;2024-01-30T13:17:20;3.90;;;3.17;;
28625;SDS011;18905;42.668;23.364;2024-01-30T13:19:45;3.73;;;3.33;;
28625;SDS011;18905;42.668;23.364;2024-01-30T13:22:10;5.40;;;3.67;;
28625;SDS011;18905;42.668;23.364;2024-01-30T13:24:36;4.80;;;3.60;;
28625;SDS011;18905;42.668;23.364;2024-01-30T13:27:01;5.57;;;3.57;;
28625;SDS011;18905;42.668;23.364;2024-01-30T13:29:30;5.20;;;3.28;;
28625;SDS011;18905;42.668;23.364;2024-01-30T13:31:56;5.67;;;3.93;;
28625;SDS011;18905;42.668;23.364;2024-01-30T13:34:21;5.20;;;3.75;;
28625;SDS011;18905;42.668;23.364;2024-01-30T13:36:46;5.80;;;4.00;;
28625;SDS011;18905;42.668;23.364;2024-01-30T13:39:13;4.30;;;3.60;;
28625;SDS011;18905;42.668;23.364;2024-01-30T13:41:41;5.80;;;4.10;;
28625;SDS011;18905;42.668;23.364;2024-01-30T13:44:07;6.03;;;4.20;;
28625;SDS011;18905;42.668;23.364;2024-01-30T13:46:33;4.72;;;3.90;;
28625;SDS011;18905;42.668;23.364;2024-01-30T13:48:59;5.53;;;3.95;;
28625;SDS011;18905;42.668;23.364;2024-01-30T13:51:25;5.53;;;4.13;;
28625;SDS011;18905;42.668;23.364;2024-01-30T13:53:50;4.17;;;3.47;;
28625;SDS011;18905;42.668;23.364;2024-01-30T13:56:16;5.45;;;4.38;;
28625;SDS011;18905;42.668;23.364;2024-01-30T13:58:41;6.40;;;3.73;;
28625;SDS011;18905;42.668;23.364;2024-01-30T14:01:06;6.23;;;3.77;;
28625;SDS011;18905;42.668;23.364;2024-01-30T14:03:32;5.10;;;3.95;;
28625;SDS011;18905;42.668;23.364;2024-01-30T14:05:57;5.00;;;3.50;;
28625;SDS011;18905;42.668;23.364;2024-01-30T14:08:23;3.80;;;3.43;;
28625;SDS011;18905;42.668;23.364;2024-01-30T14:10:51;5.60;;;3.92;;
28625;SDS011;18905;42.668;23.364;2024-01-30T14:13:17;4.60;;;4.07;;
28625;SDS011;18905;42.668;23.364;2024-01-30T14:15:42;5.30;;;3.83;;
28625;SDS011;18905;42.668;23.364;2024-01-30T14:18:08;7.57;;;4.43;;
28625;SDS011;18905;42.668;23.364;2024-01-30T14:20:34;5.40;;;3.67;;
28625;SDS011;18905;42.668;23.364;2024-01-30T14:22:59;4.30;;;3.80;;
28625;SDS011;18905;42.668;23.364;2024-01-30T14:25:25;6.73;;;4.10;;
28625;SDS011;18905;42.668;23.364;2024-01-30T14:27:51;8.20;;;4.03;;
28625;SDS011;18905;42.668;23.364;2024-01-30T14:30:16;6.18;;;4.70;;
28625;SDS011;18905;42.668;23.364;2024-01-30T14:32:42;7.00;;;4.70;;
28625;SDS011;18905;42.668;23.364;2024-01-30T14:35:09;6.47;;;4.57;;
28625;SDS011;18905;42.668;23.364;2024-01-30T14:37:35;8.75;;;4.70;;
28625;SDS011;18905;42.668;23.364;2024-01-30T14:40:01;8.88;;;5.78;;
28625;SDS011;18905;42.668;23.364;2024-01-30T14:42:27;7.85;;;5.20;;
28625;SDS011;18905;42.668;23.364;2024-01-30T14:44:56;7.17;;;5.60;;
28625;SDS011;18905;42.668;23.364;2024-01-30T14:47:21;14.07;;;5.20;;
28625;SDS011;18905;42.668;23.364;2024-01-30T14:49:47;9.67;;;5.57;;
28625;SDS011;18905;42.668;23.364;2024-01-30T14:52:12;7.10;;;5.07;;
28625;SDS011;18905;42.668;23.364;2024-01-30T14:54:39;8.63;;;5.30;;
28625;SDS011;18905;42.668;23.364;2024-01-30T14:57:04;8.80;;;5.17;;
28625;SDS011;18905;42.668;23.364;2024-01-30T14:59:30;10.13;;;5.30;;
28625;SDS011;18905;42.668;23.364;2024-01-30T15:01:55;9.37;;;4.67;;
28625;SDS011;18905;42.668;23.364;2024-01-30T15:04:21;8.80;;;5.47;;
28625;SDS011;18905;42.668;23.364;2024-01-30T15:06:46;8.10;;;5.47;;
28625;SDS011;18905;42.668;23.364;2024-01-30T15:09:13;9.53;;;5.97;;
28625;SDS011;18905;42.668;23.364;2024-01-30T15:11:40;10.10;;;6.25;;
28625;SDS011;18905;42.668;23.364;2024-01-30T15:14:09;8.57;;;5.05;;
28625;SDS011;18905;42.668;23.364;2024-01-30T15:16:35;8.82;;;5.38;;
28625;SDS011;18905;42.668;23.364;2024-01-30T15:19:00;6.55;;;5.13;;
28625;SDS011;18905;42.668;23.364;2024-01-30T15:21:26;10.27;;;5.78;;
28625;SDS011;18905;42.668;23.364;2024-01-30T15:23:51;10.43;;;6.07;;
28625;SDS011;18905;42.668;23.364;2024-01-30T15:26:16;10.10;;;5.80;;
28625;SDS011;18905;42.668;23.364;2024-01-30T18:06:57;19.53;;;7.93;;
28625;SDS011;18905;42.668;23.364;2024-01-30T18:09:23;10.15;;;3.05;;
28625;SDS011;18905;42.668;23.364;2024-01-30T18:11:49;5.07;;;3.35;;
28625;SDS011;18905;42.668;23.364;2024-01-30T18:14:15;10.07;;;3.92;;
28625;SDS011;18905;42.668;23.364;2024-01-30T18:16:40;7.85;;;4.18;;
28625;SDS011;18905;42.668;23.364;2024-01-30T18:19:06;8.57;;;4.60;;
28625;SDS011;18905;42.668;23.364;2024-01-30T18:21:31;6.90;;;4.13;;
28625;SDS011;18905;42.668;23.364;2024-01-30T18:23:57;8.32;;;4.55;;
28625;SDS011;18905;42.668;23.364;2024-01-30T18:26:22;6.72;;;3.70;;
28625;SDS011;18905;42.668;23.364;2024-01-30T18:28:48;6.35;;;3.45;;
28625;SDS011;18905;42.668;23.364;2024-01-30T18:31:14;7.80;;;4.45;;
28625;SDS011;18905;42.668;23.364;2024-01-30T18:33:40;6.75;;;4.28;;
28625;SDS011;18905;42.668;23.364;2024-01-30T18:36:05;9.07;;;4.05;;
28625;SDS011;18905;42.668;23.364;2024-01-30T18:38:31;6.55;;;4.10;;
28625;SDS011;18905;42.668;23.364;2024-01-30T18:40:57;8.30;;;4.72;;
28625;SDS011;18905;42.668;23.364;2024-01-30T18:43:22;9.77;;;4.40;;
28625;SDS011;18905;42.668;23.364;2024-01-30T18:45:51;9.70;;;4.82;;
28625;SDS011;18905;42.668;23.364;2024-01-30T18:48:21;11.13;;;5.80;;
28625;SDS011;18905;42.668;23.364;2024-01-30T18:50:46;11.25;;;4.95;;
28625;SDS011;18905;42.668;23.364;2024-01-30T18:53:12;13.95;;;5.55;;
28625;SDS011;18905;42.668;23.364;2024-01-30T18:55:37;8.70;;;5.20;;
28625;SDS011;18905;42.668;23.364;2024-01-30T18:58:03;9.13;;;4.78;;
28625;SDS011;18905;42.668;23.364;2024-01-30T19:00:31;7.38;;;4.68;;
28625;SDS011;18905;42.668;23.364;2024-01-30T19:02:59;12.18;;;5.68;;
28625;SDS011;18905;42.668;23.364;2024-01-30T19:05:24;11.88;;;5.15;;
28625;SDS011;18905;42.668;23.364;2024-01-30T19:07:50;12.88;;;5.88;;
28625;SDS011;18905;42.668;23.364;2024-01-30T19:10:15;12.68;;;5.28;;
28625;SDS011;18905;42.668;23.364;2024-01-30T19:12:41;7.55;;;4.38;;
28625;SDS011;18905;42.668;23.364;2024-01-30T19:15:08;10.15;;;4.70;;
28625;SDS011;18905;42.668;23.364;2024-01-30T19:17:35;11.07;;;5.25;;
28625;SDS011;18905;42.668;23.364;2024-01-30T19:20:04;11.25;;;5.88;;
28625;SDS011;18905;42.668;23.364;2024-01-30T19:22:32;12.57;;;6.57;;
28625;SDS011;18905;42.668;23.364;2024-01-30T19:24:57;12.05;;;5.72;;
28625;SDS011;18905;42.668;23.364;2024-01-30T19:27:25;15.57;;;7.70;;
28625;SDS011;18905;42.668;23.364;2024-01-30T19:29:51;9.88;;;6.05;;
28625;SDS011;18905;42.668;23.364;2024-01-30T19:32:16;13.32;;;6.78;;
28625;SDS011;18905;42.668;23.364;2024-01-30T19:34:42;18.27;;;6.90;;
28625;SDS011;18905;42.668;23.364;2024-01-30T19:37:07;17.20;;;7.15;;
28625;SDS011;18905;42.668;23.364;2024-01-30T19:39:33;19.53;;;6.53;;
28625;SDS011;18905;42.668;23.364;2024-01-30T19:41:58;17.97;;;7.47;;
28625;SDS011;18905;42.668;23.364;2024-01-30T19:44:23;20.83;;;8.00;;
28625;SDS011;18905;42.668;23.364;2024-01-30T19:46:49;14.95;;;7.57;;
28625;SDS011;18905;42.668;23.364;2024-01-30T19:49:14;18.83;;;6.63;;
28625;SDS011;18905;42.668;23.364;2024-01-30T19:51:41;15.40;;;6.38;;
28625;SDS011;18905;42.668;23.364;2024-01-30T19:54:09;13.88;;;7.25;;
28625;SDS011;18905;42.668;23.364;2024-01-30T19:56:36;15.20;;;6.68;;
28625;SDS011;18905;42.668;23.364;2024-01-30T19:59:01;14.82;;;6.22;;
28625;SDS011;18905;42.668;23.364;2024-01-30T20:01:26;17.52;;;8.75;;
28625;SDS011;18905;42.668;23.364;2024-01-30T20:03:52;19.15;;;9.05;;
28625;SDS011;18905;42.668;23.364;2024-01-30T20:06:17;20.00;;;9.47;;
28625;SDS011;18905;42.668;23.364;2024-01-30T20:08:42;18.53;;;7.40;;
28625;SDS011;18905;42.668;23.364;2024-01-30T20:11:12;13.25;;;6.22;;
28625;SDS011;18905;42.668;23.364;2024-01-30T20:13:39;18.95;;;8.05;;
28625;SDS011;18905;42.668;23.364;2024-01-30T20:16:05;14.10;;;6.97;;
28625;SDS011;18905;42.668;23.364;2024-01-30T20:18:30;16.00;;;7.53;;
28625;SDS011;18905;42.668;23.364;2024-01-30T20:20:57;17.40;;;6.18;;
28625;SDS011;18905;42.668;23.364;2024-01-30T20:23:22;11.52;;;6.82;;
28625;SDS011;18905;42.668;23.364;2024-01-30T20:25:48;18.73;;;7.65;;
28625;SDS011;18905;42.668;23.364;2024-01-30T20:28:13;20.77;;;7.07;;
28625;SDS011;18905;42.668;23.364;2024-01-30T20:30:38;15.75;;;7.50;;
28625;SDS011;18905;42.668;23.364;2024-01-30T20:33:04;16.77;;;6.85;;
28625;SDS011;18905;42.668;23.364;2024-01-30T20:35:29;14.40;;;7.60;;
28625;SDS011;18905;42.668;23.364;2024-01-30T20:37:55;14.30;;;8.20;;
28625;SDS011;18905;42.668;23.364;2024-01-30T20:40:20;14.73;;;8.18;;
28625;SDS011;18905;42.668;23.364;2024-01-30T20:42:46;15.15;;;6.90;;
28625;SDS011;18905;42.668;23.364;2024-01-30T20:45:12;15.40;;;7.68;;
28625;SDS011;18905;42.668;23.364;2024-01-30T20:47:38;15.95;;;7.38;;
28625;SDS011;18905;42.668;23.364;2024-01-30T20:50:03;13.10;;;6.63;;
28625;SDS011;18905;42.668;23.364;2024-01-30T20:52:29;27.92;;;8.40;;
28625;SDS011;18905;42.668;23.364;2024-01-30T20:54:54;24.73;;;7.45;;
28625;SDS011;18905;42.668;23.364;2024-01-30T20:57:19;13.70;;;7.47;;
28625;SDS011;18905;42.668;23.364;2024-01-30T20:59:45;13.25;;;7.38;;
28625;SDS011;18905;42.668;23.364;2024-01-30T21:02:10;17.77;;;7.78;;
28625;SDS011;18905;42.668;23.364;2024-01-30T21:04:35;17.17;;;8.57;;
28625;SDS011;18905;42.668;23.364;2024-01-30T21:07:01;22.88;;;9.57;;
28625;SDS011;18905;42.668;23.364;2024-01-30T21:09:26;16.75;;;8.32;;
28625;SDS011;18905;42.668;23.364;2024-01-30T21:11:51;21.17;;;7.43;;
28625;SDS011;18905;42.668;23.364;2024-01-30T21:14:17;18.38;;;9.40;;
28625;SDS011;18905;42.668;23.364;2024-01-30T21:16:43;18.83;;;8.48;;
28625;SDS011;18905;42.668;23.364;2024-01-30T21:19:08;17.25;;;9.20;;
28625;SDS011;18905;42.668;23.364;2024-01-30T21:21:35;24.17;;;9.68;;
28625;SDS011;18905;42.668;23.364;2024-01-30T21:24:00;19.50;;;8.10;;
28625;SDS011;18905;42.668;23.364;2024-01-30T21:26:44;19.00;;;8.80;;
28625;SDS011;18905;42.668;23.364;2024-01-30T21:29:10;19.15;;;9.13;;
28625;SDS011;18905;42.668;23.364;2024-01-30T21:31:35;15.35;;;8.05;;
28625;SDS011;18905;42.668;23.364;2024-01-30T21:34:00;20.77;;;9.00;;
28625;SDS011;18905;42.668;23.364;2024-01-30T21:36:26;20.70;;;10.30;;
28625;SDS011;18905;42.668;23.364;2024-01-30T21:38:51;23.47;;;8.73;;
28625;SDS011;18905;42.668;23.364;2024-01-30T21:41:16;18.75;;;8.27;;
28625;SDS011;18905;42.668;23.364;2024-01-30T21:43:42;20.55;;;10.18;;